Troutville, PA (15866)

5:48 AM EDT on April 24, 2017 (GMT -0400)
Pine Hills | | Change Station

Elev 1577 ft 41.11 °N, 78.87 °W | Updated 17 seconds ago

Clear
Clear
36.5 °F
Feels Like 36 °F
N
0.0
Wind Variable Wind from North

Today
High -- | Low -- °F
--% Chance of Precip.
Yesterday
High -- | Low -- °F
Precip. -- in
Pressure 30.04 in
Visibility 10.0 miles
Clouds Clear
Windchill 36 °F
Dew Point 32 °F
Humidity 84%
Rainfall 0.00 in
Snow Depth Not available.
6:22 AM 8:04 PM
Waning Crescent, 6% visible
METAR KDUJ 240853Z AUTO 05005KT 10SM CLR 06/M02 A3004 RMK AO2 SLP172 T00611017 58006
Pressure 30.04 in
Visibility 10.0 miles
Clouds Clear
Windchill 36 °F
Dew Point 32 °F
Humidity 84%
Rainfall 0.00 in
Snow Depth Not available.
6:22 AM 8:04 PM
Waning Crescent, 6% visible
METAR KDUJ 240853Z AUTO 05005KT 10SM CLR 06/M02 A3004 RMK AO2 SLP172 T00611017 58006

Get Severe Weather Alerts

Thanks for signing up!

Be on the lookout for a verification email in your inbox.

You'll start receiving the daily forecast at 8 AM.

×

10-Day Weather Forecast

Almanac

Astronomy

Apr. 24, 2017 Rise Set
Actual Time
Civil Twilight
Nautical Twilight
Astronomical Twilight
Moon
Length of Visible Light
Length of Day
Tomorrow will be .
, % of the Moon is Illuminated

Today's Extremes

State Highs State Lows

Community

WunderPhotos

WunderBlog® & News

Nearby

Air Quality

  Air Quality AQ Index Pollutant
Not available.

Snow Depth

Station Depth Elevation

Earthquake Activity

City Distance Mag. Time & Date
Minimum magnitude displayed is 2.5.

Coastal Water Temperatures

Place Temperature

Stations

Nearby Weather Stations

Station Location Temp. Windchill Dew Point Humidity Wind Precip. Elev Updated Type
                   

Watches & Warnings

There are currently no watches in effect.